Johnsonburg, Pennsylvania
Current Conditions -  °F | °C
As of 10:53 PM on Saturday 25 Oct 2014 (Local Time) from KBFD Reporting Station
Clear Clear  
Wind Chill: 53°   Ceiling: Unl
Heat Index: 53°   Visibility: 10mi
Dew Point: 45°   Wind: 12mph
Humidity: 74%   Direction: 270°W
Pressure: 29.66"   Gusts: 18mph
Location:  41.49°N, 78.68°W
Report Text: KBFD 260253Z AUTO 27010G16KT 10SM CLR 12/07 A2966 RMK AO2 SLP041 T01170072 58011
Loading
Personal Weather Stations






























Interactive Weather Map
Tropical Storm Tracking
New forecast layout! Learn more

10-Day Weather Forecast

Advertisements
Track Severe Weather on mobile